sensor_id;sensor_type;location;lat;lon;timestamp;P1;durP1;ratioP1;P2;durP2;ratioP2
68985;SDS011;56035;37.534;-122.308;2024-02-26T00:01:45;4.22;;;1.35;;
68985;SDS011;56035;37.534;-122.308;2024-02-26T00:04:11;5.68;;;1.92;;
68985;SDS011;56035;37.534;-122.308;2024-02-26T00:06:38;7.77;;;1.80;;
68985;SDS011;56035;37.534;-122.308;2024-02-26T00:09:08;5.00;;;1.77;;
68985;SDS011;56035;37.534;-122.308;2024-02-26T00:11:38;4.00;;;1.65;;
68985;SDS011;56035;37.534;-122.308;2024-02-26T00:14:04;5.43;;;1.60;;
68985;SDS011;56035;37.534;-122.308;2024-02-26T00:16:30;7.15;;;1.65;;
68985;SDS011;56035;37.534;-122.308;2024-02-26T00:18:57;5.55;;;1.95;;
68985;SDS011;56035;37.534;-122.308;2024-02-26T00:23:50;4.87;;;1.47;;
68985;SDS011;56035;37.534;-122.308;2024-02-26T00:26:18;3.27;;;1.13;;
68985;SDS011;56035;37.534;-122.308;2024-02-26T00:28:45;3.53;;;1.10;;
68985;SDS011;56035;37.534;-122.308;2024-02-26T00:31:11;3.47;;;1.30;;
68985;SDS011;56035;37.534;-122.308;2024-02-26T00:33:38;6.68;;;1.30;;
68985;SDS011;56035;37.534;-122.308;2024-02-26T00:36:04;5.97;;;1.25;;
68985;SDS011;56035;37.534;-122.308;2024-02-26T00:40:57;5.00;;;1.53;;
68985;SDS011;56035;37.534;-122.308;2024-02-26T00:43:23;5.28;;;1.30;;
68985;SDS011;56035;37.534;-122.308;2024-02-26T00:45:49;5.22;;;1.60;;
68985;SDS011;56035;37.534;-122.308;2024-02-26T00:48:17;4.63;;;1.90;;
68985;SDS011;56035;37.534;-122.308;2024-02-26T00:50:44;4.70;;;1.35;;
68985;SDS011;56035;37.534;-122.308;2024-02-26T00:53:10;3.72;;;1.58;;
68985;SDS011;56035;37.534;-122.308;2024-02-26T00:55:36;4.97;;;1.55;;
68985;SDS011;56035;37.534;-122.308;2024-02-26T00:58:03;4.35;;;2.03;;
68985;SDS011;56035;37.534;-122.308;2024-02-26T01:00:29;3.33;;;1.20;;
68985;SDS011;56035;37.534;-122.308;2024-02-26T01:02:56;4.55;;;1.50;;
68985;SDS011;56035;37.534;-122.308;2024-02-26T01:05:22;4.15;;;1.45;;
68985;SDS011;56035;37.534;-122.308;2024-02-26T01:07:48;3.30;;;1.35;;
68985;SDS011;56035;37.534;-122.308;2024-02-26T01:10:15;6.00;;;1.58;;
68985;SDS011;56035;37.534;-122.308;2024-02-26T01:12:41;3.75;;;1.30;;
68985;SDS011;56035;37.534;-122.308;2024-02-26T01:15:08;4.22;;;1.40;;
68985;SDS011;56035;37.534;-122.308;2024-02-26T01:17:35;5.18;;;1.60;;
68985;SDS011;56035;37.534;-122.308;2024-02-26T01:20:01;3.63;;;1.90;;
68985;SDS011;56035;37.534;-122.308;2024-02-26T01:22:28;3.58;;;1.73;;
68985;SDS011;56035;37.534;-122.308;2024-02-26T01:24:54;4.68;;;1.40;;
68985;SDS011;56035;37.534;-122.308;2024-02-26T01:27:22;4.97;;;1.73;;
68985;SDS011;56035;37.534;-122.308;2024-02-26T01:29:52;3.93;;;1.60;;
68985;SDS011;56035;37.534;-122.308;2024-02-26T01:32:18;2.90;;;1.50;;
68985;SDS011;56035;37.534;-122.308;2024-02-26T01:34:45;4.38;;;1.60;;
68985;SDS011;56035;37.534;-122.308;2024-02-26T01:37:11;2.85;;;1.20;;
68985;SDS011;56035;37.534;-122.308;2024-02-26T01:39:37;3.53;;;1.50;;
68985;SDS011;56035;37.534;-122.308;2024-02-26T01:42:06;4.30;;;1.40;;
68985;SDS011;56035;37.534;-122.308;2024-02-26T01:44:33;3.70;;;1.30;;
68985;SDS011;56035;37.534;-122.308;2024-02-26T01:46:59;3.22;;;1.40;;
68985;SDS011;56035;37.534;-122.308;2024-02-26T01:49:27;4.83;;;1.50;;
68985;SDS011;56035;37.534;-122.308;2024-02-26T01:51:53;4.28;;;1.58;;
68985;SDS011;56035;37.534;-122.308;2024-02-26T01:54:20;2.75;;;1.35;;
68985;SDS011;56035;37.534;-122.308;2024-02-26T01:56:47;4.10;;;1.80;;
68985;SDS011;56035;37.534;-122.308;2024-02-26T01:59:13;2.88;;;1.33;;
68985;SDS011;56035;37.534;-122.308;2024-02-26T02:01:40;2.25;;;1.25;;
68985;SDS011;56035;37.534;-122.308;2024-02-26T02:04:11;6.00;;;1.50;;
68985;SDS011;56035;37.534;-122.308;2024-02-26T02:06:37;4.15;;;1.40;;
68985;SDS011;56035;37.534;-122.308;2024-02-26T02:09:04;6.25;;;1.65;;
68985;SDS011;56035;37.534;-122.308;2024-02-26T02:11:33;3.03;;;1.53;;
68985;SDS011;56035;37.534;-122.308;2024-02-26T02:13:59;3.58;;;1.33;;
68985;SDS011;56035;37.534;-122.308;2024-02-26T02:16:26;4.43;;;1.40;;
68985;SDS011;56035;37.534;-122.308;2024-02-26T02:18:52;4.07;;;1.67;;
68985;SDS011;56035;37.534;-122.308;2024-02-26T02:23:45;3.70;;;1.40;;
68985;SDS011;56035;37.534;-122.308;2024-02-26T02:26:15;5.80;;;1.38;;
68985;SDS011;56035;37.534;-122.308;2024-02-26T02:28:41;4.60;;;1.90;;
68985;SDS011;56035;37.534;-122.308;2024-02-26T02:31:08;3.15;;;1.75;;
68985;SDS011;56035;37.534;-122.308;2024-02-26T02:33:35;4.40;;;1.70;;
68985;SDS011;56035;37.534;-122.308;2024-02-26T02:36:01;2.88;;;1.60;;
68985;SDS011;56035;37.534;-122.308;2024-02-26T02:38:28;4.88;;;1.50;;
68985;SDS011;56035;37.534;-122.308;2024-02-26T02:40:55;3.20;;;1.57;;
68985;SDS011;56035;37.534;-122.308;2024-02-26T02:43:22;5.63;;;1.90;;
68985;SDS011;56035;37.534;-122.308;2024-02-26T02:45:48;5.40;;;2.03;;
68985;SDS011;56035;37.534;-122.308;2024-02-26T02:48:14;4.60;;;1.63;;
68985;SDS011;56035;37.534;-122.308;2024-02-26T02:50:41;5.90;;;1.70;;
68985;SDS011;56035;37.534;-122.308;2024-02-26T02:53:07;3.25;;;1.92;;
68985;SDS011;56035;37.534;-122.308;2024-02-26T02:55:34;2.90;;;1.70;;
68985;SDS011;56035;37.534;-122.308;2024-02-26T02:58:00;6.20;;;1.80;;
68985;SDS011;56035;37.534;-122.308;2024-02-26T03:00:26;5.57;;;1.70;;
68985;SDS011;56035;37.534;-122.308;2024-02-26T03:02:53;5.97;;;2.60;;
68985;SDS011;56035;37.534;-122.308;2024-02-26T03:05:19;6.57;;;2.08;;
68985;SDS011;56035;37.534;-122.308;2024-02-26T03:07:46;4.90;;;2.05;;
68985;SDS011;56035;37.534;-122.308;2024-02-26T03:10:12;6.25;;;2.03;;
68985;SDS011;56035;37.534;-122.308;2024-02-26T03:12:39;4.95;;;1.70;;
68985;SDS011;56035;37.534;-122.308;2024-02-26T03:15:05;4.05;;;1.58;;
68985;SDS011;56035;37.534;-122.308;2024-02-26T03:17:32;5.90;;;2.22;;
68985;SDS011;56035;37.534;-122.308;2024-02-26T03:19:58;4.38;;;1.50;;
68985;SDS011;56035;37.534;-122.308;2024-02-26T03:24:51;4.07;;;1.73;;
68985;SDS011;56035;37.534;-122.308;2024-02-26T03:27:18;4.00;;;2.13;;
68985;SDS011;56035;37.534;-122.308;2024-02-26T03:29:44;3.35;;;1.38;;
68985;SDS011;56035;37.534;-122.308;2024-02-26T03:32:10;5.38;;;1.73;;
68985;SDS011;56035;37.534;-122.308;2024-02-26T03:34:37;5.00;;;1.90;;
68985;SDS011;56035;37.534;-122.308;2024-02-26T03:37:05;4.33;;;1.90;;
68985;SDS011;56035;37.534;-122.308;2024-02-26T03:39:33;4.13;;;1.67;;
68985;SDS011;56035;37.534;-122.308;2024-02-26T03:41:59;7.40;;;2.13;;
68985;SDS011;56035;37.534;-122.308;2024-02-26T03:44:25;5.20;;;1.88;;
68985;SDS011;56035;37.534;-122.308;2024-02-26T03:46:52;3.55;;;1.77;;
68985;SDS011;56035;37.534;-122.308;2024-02-26T03:49:18;4.38;;;1.85;;
68985;SDS011;56035;37.534;-122.308;2024-02-26T03:51:45;4.55;;;1.80;;
68985;SDS011;56035;37.534;-122.308;2024-02-26T03:54:11;7.30;;;2.13;;
68985;SDS011;56035;37.534;-122.308;2024-02-26T03:56:37;5.38;;;1.73;;
68985;SDS011;56035;37.534;-122.308;2024-02-26T03:59:04;6.15;;;2.10;;
68985;SDS011;56035;37.534;-122.308;2024-02-26T04:01:30;5.88;;;1.88;;
68985;SDS011;56035;37.534;-122.308;2024-02-26T04:03:57;3.97;;;1.88;;
68985;SDS011;56035;37.534;-122.308;2024-02-26T04:06:23;5.60;;;1.83;;
68985;SDS011;56035;37.534;-122.308;2024-02-26T04:08:49;4.18;;;1.90;;
68985;SDS011;56035;37.534;-122.308;2024-02-26T04:11:16;8.93;;;2.55;;
68985;SDS011;56035;37.534;-122.308;2024-02-26T04:13:46;5.13;;;2.03;;
68985;SDS011;56035;37.534;-122.308;2024-02-26T04:16:14;3.80;;;2.00;;
68985;SDS011;56035;37.534;-122.308;2024-02-26T04:18:42;7.43;;;2.27;;
68985;SDS011;56035;37.534;-122.308;2024-02-26T04:21:08;5.28;;;2.65;;
68985;SDS011;56035;37.534;-122.308;2024-02-26T04:23:34;5.10;;;1.48;;
68985;SDS011;56035;37.534;-122.308;2024-02-26T04:26:01;3.85;;;2.17;;
68985;SDS011;56035;37.534;-122.308;2024-02-26T04:28:27;5.97;;;2.38;;
68985;SDS011;56035;37.534;-122.308;2024-02-26T04:30:55;7.80;;;2.30;;
68985;SDS011;56035;37.534;-122.308;2024-02-26T04:33:21;4.15;;;2.00;;
68985;SDS011;56035;37.534;-122.308;2024-02-26T04:35:48;4.05;;;2.30;;
68985;SDS011;56035;37.534;-122.308;2024-02-26T04:38:14;6.30;;;2.30;;
68985;SDS011;56035;37.534;-122.308;2024-02-26T04:40:40;5.97;;;2.70;;
68985;SDS011;56035;37.534;-122.308;2024-02-26T04:43:07;6.05;;;2.30;;
68985;SDS011;56035;37.534;-122.308;2024-02-26T04:45:33;5.45;;;2.30;;
68985;SDS011;56035;37.534;-122.308;2024-02-26T04:48:00;4.93;;;2.00;;
68985;SDS011;56035;37.534;-122.308;2024-02-26T04:50:26;3.88;;;2.22;;
68985;SDS011;56035;37.534;-122.308;2024-02-26T04:52:52;5.72;;;2.20;;
68985;SDS011;56035;37.534;-122.308;2024-02-26T04:55:19;5.63;;;2.35;;
68985;SDS011;56035;37.534;-122.308;2024-02-26T04:57:45;7.32;;;2.30;;
68985;SDS011;56035;37.534;-122.308;2024-02-26T05:00:12;8.00;;;2.60;;
68985;SDS011;56035;37.534;-122.308;2024-02-26T05:02:39;5.13;;;2.87;;
68985;SDS011;56035;37.534;-122.308;2024-02-26T05:05:06;5.53;;;2.05;;
68985;SDS011;56035;37.534;-122.308;2024-02-26T05:07:34;4.83;;;2.77;;
68985;SDS011;56035;37.534;-122.308;2024-02-26T05:10:04;6.50;;;2.40;;
68985;SDS011;56035;37.534;-122.308;2024-02-26T05:12:31;6.88;;;2.50;;
68985;SDS011;56035;37.534;-122.308;2024-02-26T05:15:00;6.90;;;2.97;;
68985;SDS011;56035;37.534;-122.308;2024-02-26T05:17:27;8.00;;;2.83;;
68985;SDS011;56035;37.534;-122.308;2024-02-26T05:19:53;5.38;;;2.85;;
68985;SDS011;56035;37.534;-122.308;2024-02-26T05:22:20;8.68;;;2.60;;
68985;SDS011;56035;37.534;-122.308;2024-02-26T05:24:46;5.15;;;2.90;;
68985;SDS011;56035;37.534;-122.308;2024-02-26T05:27:12;5.22;;;2.63;;
68985;SDS011;56035;37.534;-122.308;2024-02-26T05:29:39;5.30;;;2.65;;
68985;SDS011;56035;37.534;-122.308;2024-02-26T05:32:06;5.95;;;3.78;;
68985;SDS011;56035;37.534;-122.308;2024-02-26T05:36:58;6.07;;;2.70;;
68985;SDS011;56035;37.534;-122.308;2024-02-26T05:39:25;6.28;;;2.63;;
68985;SDS011;56035;37.534;-122.308;2024-02-26T05:41:51;6.75;;;2.55;;
68985;SDS011;56035;37.534;-122.308;2024-02-26T05:44:17;5.35;;;2.67;;
68985;SDS011;56035;37.534;-122.308;2024-02-26T05:46:44;5.53;;;2.80;;
68985;SDS011;56035;37.534;-122.308;2024-02-26T05:49:10;7.35;;;3.00;;
68985;SDS011;56035;37.534;-122.308;2024-02-26T05:51:37;6.50;;;2.75;;
68985;SDS011;56035;37.534;-122.308;2024-02-26T05:54:03;6.93;;;2.92;;
68985;SDS011;56035;37.534;-122.308;2024-02-26T05:56:29;5.25;;;2.97;;
68985;SDS011;56035;37.534;-122.308;2024-02-26T05:58:56;4.13;;;2.60;;
68985;SDS011;56035;37.534;-122.308;2024-02-26T06:01:22;6.63;;;2.95;;
68985;SDS011;56035;37.534;-122.308;2024-02-26T06:03:49;6.20;;;2.90;;
68985;SDS011;56035;37.534;-122.308;2024-02-26T06:06:16;10.48;;;3.30;;
68985;SDS011;56035;37.534;-122.308;2024-02-26T06:08:43;6.68;;;3.58;;
68985;SDS011;56035;37.534;-122.308;2024-02-26T06:11:09;6.43;;;3.20;;
68985;SDS011;56035;37.534;-122.308;2024-02-26T06:13:36;7.72;;;3.85;;
68985;SDS011;56035;37.534;-122.308;2024-02-26T06:16:02;6.93;;;3.47;;
68985;SDS011;56035;37.534;-122.308;2024-02-26T06:18:30;6.35;;;3.80;;
68985;SDS011;56035;37.534;-122.308;2024-02-26T06:20:56;6.10;;;3.83;;
68985;SDS011;56035;37.534;-122.308;2024-02-26T06:23:23;7.57;;;3.30;;
68985;SDS011;56035;37.534;-122.308;2024-02-26T06:25:49;6.90;;;3.40;;
68985;SDS011;56035;37.534;-122.308;2024-02-26T06:28:16;6.78;;;3.17;;
68985;SDS011;56035;37.534;-122.308;2024-02-26T06:30:42;5.28;;;3.10;;
68985;SDS011;56035;37.534;-122.308;2024-02-26T06:33:08;5.72;;;2.47;;
68985;SDS011;56035;37.534;-122.308;2024-02-26T06:35:36;5.67;;;3.03;;
68985;SDS011;56035;37.534;-122.308;2024-02-26T06:38:03;6.68;;;3.38;;
68985;SDS011;56035;37.534;-122.308;2024-02-26T06:40:29;3.70;;;2.80;;
68985;SDS011;56035;37.534;-122.308;2024-02-26T06:42:56;7.30;;;3.50;;
68985;SDS011;56035;37.534;-122.308;2024-02-26T06:45:22;4.72;;;2.60;;
68985;SDS011;56035;37.534;-122.308;2024-02-26T06:47:48;5.93;;;2.60;;
68985;SDS011;56035;37.534;-122.308;2024-02-26T06:50:15;5.63;;;2.33;;
68985;SDS011;56035;37.534;-122.308;2024-02-26T06:52:42;6.90;;;2.60;;
68985;SDS011;56035;37.534;-122.308;2024-02-26T06:55:09;6.90;;;2.80;;
68985;SDS011;56035;37.534;-122.308;2024-02-26T06:57:36;5.15;;;3.05;;
68985;SDS011;56035;37.534;-122.308;2024-02-26T07:00:03;5.65;;;3.00;;
68985;SDS011;56035;37.534;-122.308;2024-02-26T07:02:30;8.23;;;3.07;;
68985;SDS011;56035;37.534;-122.308;2024-02-26T07:04:57;6.03;;;2.70;;
68985;SDS011;56035;37.534;-122.308;2024-02-26T07:07:23;4.55;;;2.67;;
68985;SDS011;56035;37.534;-122.308;2024-02-26T07:09:50;7.00;;;2.70;;
68985;SDS011;56035;37.534;-122.308;2024-02-26T07:12:17;5.05;;;2.53;;
68985;SDS011;56035;37.534;-122.308;2024-02-26T07:14:44;4.70;;;2.30;;
68985;SDS011;56035;37.534;-122.308;2024-02-26T07:17:11;7.00;;;2.35;;
68985;SDS011;56035;37.534;-122.308;2024-02-26T07:19:37;4.22;;;2.20;;
68985;SDS011;56035;37.534;-122.308;2024-02-26T07:22:04;6.15;;;2.55;;
68985;SDS011;56035;37.534;-122.308;2024-02-26T07:24:31;4.53;;;2.83;;
68985;SDS011;56035;37.534;-122.308;2024-02-26T07:26:57;4.20;;;2.28;;
68985;SDS011;56035;37.534;-122.308;2024-02-26T07:29:23;5.75;;;2.60;;
68985;SDS011;56035;37.534;-122.308;2024-02-26T07:31:50;6.45;;;2.40;;
68985;SDS011;56035;37.534;-122.308;2024-02-26T07:34:16;5.13;;;2.50;;
68985;SDS011;56035;37.534;-122.308;2024-02-26T07:36:43;6.20;;;2.22;;
68985;SDS011;56035;37.534;-122.308;2024-02-26T07:39:09;5.50;;;2.58;;
68985;SDS011;56035;37.534;-122.308;2024-02-26T07:41:36;5.72;;;2.03;;
68985;SDS011;56035;37.534;-122.308;2024-02-26T07:44:04;4.27;;;2.57;;
68985;SDS011;56035;37.534;-122.308;2024-02-26T07:46:30;5.03;;;2.97;;
68985;SDS011;56035;37.534;-122.308;2024-02-26T07:48:57;6.20;;;2.80;;
68985;SDS011;56035;37.534;-122.308;2024-02-26T07:51:23;4.00;;;2.30;;
68985;SDS011;56035;37.534;-122.308;2024-02-26T07:53:49;6.07;;;2.50;;
68985;SDS011;56035;37.534;-122.308;2024-02-26T07:56:18;4.43;;;2.20;;
68985;SDS011;56035;37.534;-122.308;2024-02-26T07:58:44;3.83;;;2.20;;
68985;SDS011;56035;37.534;-122.308;2024-02-26T08:01:12;5.15;;;2.25;;
68985;SDS011;56035;37.534;-122.308;2024-02-26T08:03:40;4.67;;;2.20;;
68985;SDS011;56035;37.534;-122.308;2024-02-26T08:06:08;3.58;;;2.10;;
68985;SDS011;56035;37.534;-122.308;2024-02-26T08:08:34;6.37;;;2.30;;
68985;SDS011;56035;37.534;-122.308;2024-02-26T08:11:00;4.32;;;2.20;;
68985;SDS011;56035;37.534;-122.308;2024-02-26T08:13:27;3.40;;;2.08;;
68985;SDS011;56035;37.534;-122.308;2024-02-26T08:15:53;4.55;;;1.90;;
68985;SDS011;56035;37.534;-122.308;2024-02-26T08:18:20;4.55;;;1.98;;
68985;SDS011;56035;37.534;-122.308;2024-02-26T08:20:46;4.05;;;2.05;;
68985;SDS011;56035;37.534;-122.308;2024-02-26T08:23:14;4.37;;;1.90;;
68985;SDS011;56035;37.534;-122.308;2024-02-26T08:25:40;4.75;;;2.15;;
68985;SDS011;56035;37.534;-122.308;2024-02-26T08:28:07;3.88;;;1.85;;
68985;SDS011;56035;37.534;-122.308;2024-02-26T08:30:33;2.58;;;1.73;;
68985;SDS011;56035;37.534;-122.308;2024-02-26T08:32:59;5.22;;;2.00;;
68985;SDS011;56035;37.534;-122.308;2024-02-26T08:35:26;4.68;;;2.00;;
68985;SDS011;56035;37.534;-122.308;2024-02-26T08:37:52;4.53;;;2.20;;
68985;SDS011;56035;37.534;-122.308;2024-02-26T08:40:18;3.67;;;2.05;;
68985;SDS011;56035;37.534;-122.308;2024-02-26T08:42:45;5.53;;;2.47;;
68985;SDS011;56035;37.534;-122.308;2024-02-26T08:45:11;5.28;;;2.67;;
68985;SDS011;56035;37.534;-122.308;2024-02-26T08:47:38;7.07;;;2.72;;
68985;SDS011;56035;37.534;-122.308;2024-02-26T08:50:04;5.50;;;2.30;;
68985;SDS011;56035;37.534;-122.308;2024-02-26T08:52:31;4.90;;;2.43;;
68985;SDS011;56035;37.534;-122.308;2024-02-26T08:54:58;3.67;;;2.10;;
68985;SDS011;56035;37.534;-122.308;2024-02-26T08:57:24;2.38;;;1.50;;
68985;SDS011;56035;37.534;-122.308;2024-02-26T08:59:54;3.90;;;2.00;;
68985;SDS011;56035;37.534;-122.308;2024-02-26T09:02:20;6.47;;;2.10;;
68985;SDS011;56035;37.534;-122.308;2024-02-26T09:04:46;3.58;;;2.10;;
68985;SDS011;56035;37.534;-122.308;2024-02-26T09:07:13;5.22;;;2.53;;
68985;SDS011;56035;37.534;-122.308;2024-02-26T09:09:39;6.00;;;2.70;;
68985;SDS011;56035;37.534;-122.308;2024-02-26T09:12:06;7.22;;;2.78;;
68985;SDS011;56035;37.534;-122.308;2024-02-26T09:14:32;7.32;;;3.28;;
68985;SDS011;56035;37.534;-122.308;2024-02-26T09:16:59;7.40;;;3.53;;
68985;SDS011;56035;37.534;-122.308;2024-02-26T09:19:25;5.30;;;2.55;;
68985;SDS011;56035;37.534;-122.308;2024-02-26T09:21:55;5.70;;;2.87;;
68985;SDS011;56035;37.534;-122.308;2024-02-26T09:24:23;4.80;;;3.20;;
68985;SDS011;56035;37.534;-122.308;2024-02-26T09:26:49;6.27;;;3.00;;
68985;SDS011;56035;37.534;-122.308;2024-02-26T09:29:17;6.47;;;2.85;;
68985;SDS011;56035;37.534;-122.308;2024-02-26T09:31:43;5.37;;;2.83;;
68985;SDS011;56035;37.534;-122.308;2024-02-26T09:34:12;6.17;;;2.40;;
68985;SDS011;56035;37.534;-122.308;2024-02-26T09:36:39;5.55;;;3.10;;
68985;SDS011;56035;37.534;-122.308;2024-02-26T09:39:05;5.95;;;2.60;;
68985;SDS011;56035;37.534;-122.308;2024-02-26T09:41:36;4.93;;;2.40;;
68985;SDS011;56035;37.534;-122.308;2024-02-26T09:44:04;4.53;;;2.20;;
68985;SDS011;56035;37.534;-122.308;2024-02-26T09:46:30;5.87;;;2.00;;
68985;SDS011;56035;37.534;-122.308;2024-02-26T09:51:23;5.70;;;2.33;;
68985;SDS011;56035;37.534;-122.308;2024-02-26T09:53:53;4.80;;;2.70;;
68985;SDS011;56035;37.534;-122.308;2024-02-26T09:56:20;5.37;;;2.50;;
68985;SDS011;56035;37.534;-122.308;2024-02-26T09:58:47;5.57;;;2.40;;
68985;SDS011;56035;37.534;-122.308;2024-02-26T10:01:18;5.70;;;2.30;;
68985;SDS011;56035;37.534;-122.308;2024-02-26T10:03:47;5.03;;;2.90;;
68985;SDS011;56035;37.534;-122.308;2024-02-26T10:06:17;5.00;;;2.43;;
68985;SDS011;56035;37.534;-122.308;2024-02-26T10:08:44;5.63;;;2.53;;
68985;SDS011;56035;37.534;-122.308;2024-02-26T10:11:10;5.25;;;2.33;;
68985;SDS011;56035;37.534;-122.308;2024-02-26T10:13:37;7.18;;;3.28;;
68985;SDS011;56035;37.534;-122.308;2024-02-26T10:16:03;6.00;;;2.63;;
68985;SDS011;56035;37.534;-122.308;2024-02-26T10:18:53;5.00;;;2.50;;
68985;SDS011;56035;37.534;-122.308;2024-02-26T10:21:21;2.97;;;1.90;;
68985;SDS011;56035;37.534;-122.308;2024-02-26T10:23:48;7.90;;;2.45;;
68985;SDS011;56035;37.534;-122.308;2024-02-26T10:26:18;5.13;;;2.40;;
68985;SDS011;56035;37.534;-122.308;2024-02-26T10:31:11;3.63;;;1.83;;
68985;SDS011;56035;37.534;-122.308;2024-02-26T10:33:40;4.10;;;1.90;;
68985;SDS011;56035;37.534;-122.308;2024-02-26T10:36:07;7.53;;;2.20;;
68985;SDS011;56035;37.534;-122.308;2024-02-26T10:38:37;3.85;;;1.80;;
68985;SDS011;56035;37.534;-122.308;2024-02-26T10:41:04;3.57;;;2.00;;
68985;SDS011;56035;37.534;-122.308;2024-02-26T10:43:33;4.33;;;2.20;;
68985;SDS011;56035;37.534;-122.308;2024-02-26T10:46:00;4.70;;;2.00;;
68985;SDS011;56035;37.534;-122.308;2024-02-26T10:48:26;6.85;;;1.95;;
68985;SDS011;56035;37.534;-122.308;2024-02-26T10:50:53;5.65;;;1.92;;
68985;SDS011;56035;37.534;-122.308;2024-02-26T10:53:21;5.90;;;2.00;;
68985;SDS011;56035;37.534;-122.308;2024-02-26T10:58:24;6.97;;;1.80;;
68985;SDS011;56035;37.534;-122.308;2024-02-26T11:00:51;3.58;;;1.80;;
68985;SDS011;56035;37.534;-122.308;2024-02-26T11:03:18;3.70;;;1.90;;
68985;SDS011;56035;37.534;-122.308;2024-02-26T11:05:49;2.30;;;1.50;;
68985;SDS011;56035;37.534;-122.308;2024-02-26T11:08:18;6.57;;;1.80;;
68985;SDS011;56035;37.534;-122.308;2024-02-26T11:10:50;4.23;;;2.03;;
68985;SDS011;56035;37.534;-122.308;2024-02-26T11:13:18;5.03;;;2.00;;
68985;SDS011;56035;37.534;-122.308;2024-02-26T11:15:48;8.43;;;2.38;;
68985;SDS011;56035;37.534;-122.308;2024-02-26T11:18:14;4.60;;;2.10;;
68985;SDS011;56035;37.534;-122.308;2024-02-26T11:20:44;5.40;;;1.97;;
68985;SDS011;56035;37.534;-122.308;2024-02-26T11:23:12;5.37;;;2.30;;
68985;SDS011;56035;37.534;-122.308;2024-02-26T11:25:38;3.25;;;2.45;;
68985;SDS011;56035;37.534;-122.308;2024-02-26T11:28:14;5.32;;;2.05;;
68985;SDS011;56035;37.534;-122.308;2024-02-26T11:30:43;6.47;;;2.53;;
68985;SDS011;56035;37.534;-122.308;2024-02-26T11:33:12;7.03;;;2.77;;
68985;SDS011;56035;37.534;-122.308;2024-02-26T11:35:39;4.50;;;2.00;;
68985;SDS011;56035;37.534;-122.308;2024-02-26T11:38:06;4.85;;;2.30;;
68985;SDS011;56035;37.534;-122.308;2024-02-26T11:40:33;5.38;;;2.28;;
68985;SDS011;56035;37.534;-122.308;2024-02-26T11:43:06;5.43;;;2.50;;
68985;SDS011;56035;37.534;-122.308;2024-02-26T11:48:26;6.03;;;2.23;;
68985;SDS011;56035;37.534;-122.308;2024-02-26T11:50:52;5.13;;;1.93;;
68985;SDS011;56035;37.534;-122.308;2024-02-26T11:53:20;5.43;;;2.47;;
68985;SDS011;56035;37.534;-122.308;2024-02-26T11:58:40;4.47;;;2.23;;
68985;SDS011;56035;37.534;-122.308;2024-02-26T12:01:35;5.40;;;2.23;;
68985;SDS011;56035;37.534;-122.308;2024-02-26T12:04:19;7.23;;;2.80;;
68985;SDS011;56035;37.534;-122.308;2024-02-26T12:06:51;5.00;;;2.85;;
68985;SDS011;56035;37.534;-122.308;2024-02-26T12:09:40;5.80;;;2.60;;
68985;SDS011;56035;37.534;-122.308;2024-02-26T12:12:11;7.23;;;2.43;;
68985;SDS011;56035;37.534;-122.308;2024-02-26T12:14:51;4.95;;;2.08;;
68985;SDS011;56035;37.534;-122.308;2024-02-26T12:17:22;3.77;;;2.33;;
68985;SDS011;56035;37.534;-122.308;2024-02-26T12:19:50;4.83;;;2.20;;
68985;SDS011;56035;37.534;-122.308;2024-02-26T12:22:18;5.33;;;2.03;;
68985;SDS011;56035;37.534;-122.308;2024-02-26T12:24:45;3.00;;;2.17;;
68985;SDS011;56035;37.534;-122.308;2024-02-26T12:27:11;4.75;;;2.28;;
68985;SDS011;56035;37.534;-122.308;2024-02-26T12:29:38;6.13;;;2.17;;
68985;SDS011;56035;37.534;-122.308;2024-02-26T12:32:04;3.65;;;2.20;;
68985;SDS011;56035;37.534;-122.308;2024-02-26T12:34:31;7.40;;;2.40;;
68985;SDS011;56035;37.534;-122.308;2024-02-26T12:36:57;5.03;;;2.28;;
68985;SDS011;56035;37.534;-122.308;2024-02-26T12:39:25;5.20;;;2.60;;
68985;SDS011;56035;37.534;-122.308;2024-02-26T12:41:51;4.50;;;2.15;;
68985;SDS011;56035;37.534;-122.308;2024-02-26T12:44:18;7.32;;;2.30;;
68985;SDS011;56035;37.534;-122.308;2024-02-26T12:46:51;6.37;;;2.63;;
68985;SDS011;56035;37.534;-122.308;2024-02-26T12:49:25;5.87;;;2.60;;
68985;SDS011;56035;37.534;-122.308;2024-02-26T12:51:51;6.25;;;2.55;;
68985;SDS011;56035;37.534;-122.308;2024-02-26T12:54:17;5.43;;;2.63;;
68985;SDS011;56035;37.534;-122.308;2024-02-26T12:56:44;6.90;;;3.03;;
68985;SDS011;56035;37.534;-122.308;2024-02-26T12:59:10;5.63;;;3.00;;
68985;SDS011;56035;37.534;-122.308;2024-02-26T13:01:37;5.75;;;2.90;;
68985;SDS011;56035;37.534;-122.308;2024-02-26T13:04:03;5.78;;;2.92;;
68985;SDS011;56035;37.534;-122.308;2024-02-26T13:06:32;7.07;;;3.40;;
68985;SDS011;56035;37.534;-122.308;2024-02-26T13:08:59;5.57;;;3.03;;
68985;SDS011;56035;37.534;-122.308;2024-02-26T13:11:27;5.03;;;3.30;;
68985;SDS011;56035;37.534;-122.308;2024-02-26T13:13:54;8.70;;;3.77;;
68985;SDS011;56035;37.534;-122.308;2024-02-26T13:16:23;5.78;;;3.53;;
68985;SDS011;56035;37.534;-122.308;2024-02-26T13:18:50;5.97;;;3.20;;
68985;SDS011;56035;37.534;-122.308;2024-02-26T13:21:17;8.27;;;3.72;;
68985;SDS011;56035;37.534;-122.308;2024-02-26T13:23:48;9.53;;;4.40;;
68985;SDS011;56035;37.534;-122.308;2024-02-26T13:26:15;7.73;;;3.90;;
68985;SDS011;56035;37.534;-122.308;2024-02-26T13:28:42;6.40;;;4.07;;
68985;SDS011;56035;37.534;-122.308;2024-02-26T13:31:08;6.35;;;4.38;;
68985;SDS011;56035;37.534;-122.308;2024-02-26T13:33:34;6.43;;;3.45;;
68985;SDS011;56035;37.534;-122.308;2024-02-26T13:36:01;10.32;;;3.78;;
68985;SDS011;56035;37.534;-122.308;2024-02-26T13:38:28;6.72;;;4.00;;
68985;SDS011;56035;37.534;-122.308;2024-02-26T13:40:54;6.85;;;4.18;;
68985;SDS011;56035;37.534;-122.308;2024-02-26T13:43:21;8.15;;;4.00;;
68985;SDS011;56035;37.534;-122.308;2024-02-26T13:45:47;7.60;;;3.58;;
68985;SDS011;56035;37.534;-122.308;2024-02-26T13:48:14;9.43;;;3.70;;
68985;SDS011;56035;37.534;-122.308;2024-02-26T13:50:41;8.02;;;4.07;;
68985;SDS011;56035;37.534;-122.308;2024-02-26T13:53:11;8.13;;;4.53;;
68985;SDS011;56035;37.534;-122.308;2024-02-26T13:55:39;8.60;;;4.70;;
68985;SDS011;56035;37.534;-122.308;2024-02-26T13:58:07;7.57;;;4.80;;
68985;SDS011;56035;37.534;-122.308;2024-02-26T14:00:36;8.50;;;4.80;;
68985;SDS011;56035;37.534;-122.308;2024-02-26T14:03:02;7.25;;;4.25;;
68985;SDS011;56035;37.534;-122.308;2024-02-26T14:05:29;8.98;;;4.57;;
68985;SDS011;56035;37.534;-122.308;2024-02-26T14:07:55;9.95;;;5.00;;
68985;SDS011;56035;37.534;-122.308;2024-02-26T14:10:22;11.20;;;5.57;;
68985;SDS011;56035;37.534;-122.308;2024-02-26T14:12:48;14.07;;;5.07;;
68985;SDS011;56035;37.534;-122.308;2024-02-26T14:15:15;12.65;;;5.38;;
68985;SDS011;56035;37.534;-122.308;2024-02-26T14:17:41;8.13;;;4.75;;
68985;SDS011;56035;37.534;-122.308;2024-02-26T14:20:08;9.13;;;4.70;;
68985;SDS011;56035;37.534;-122.308;2024-02-26T14:22:35;7.68;;;4.60;;
68985;SDS011;56035;37.534;-122.308;2024-02-26T14:25:01;9.45;;;4.78;;
68985;SDS011;56035;37.534;-122.308;2024-02-26T14:27:28;13.30;;;5.70;;
68985;SDS011;56035;37.534;-122.308;2024-02-26T14:29:54;8.98;;;4.80;;
68985;SDS011;56035;37.534;-122.308;2024-02-26T14:32:21;9.07;;;4.72;;
68985;SDS011;56035;37.534;-122.308;2024-02-26T14:34:47;9.45;;;4.10;;